Orlando, Florida
Traffic Map
Current Weather Conditions
Orlando, Florida
Scattered Clouds
Scattered Clouds
81°
Feels Like: 84°
Wind Chill: 81° Ceiling: Unl
Heat Index: 84° Visibility: 10mi
Dew Point: 69° Wind: 13mph
Humidity: 67% Direction: 180° (S)
Pressure: 29.99in Gusts: 0mph
Raw Report DataKORL 181853Z 18011KT 10SM FEW030 SCT044 27/21 A2999 RMK AO2 SLP158 T02720206
Traffic Incident Summary
Active as of:
Severity:
Category:
InformationThere was an issue retrieving the traffic information for this location. Please try a different location or try again shortly.
Advertisements
At Last! Intellicast now available for iPhone and Android